Time;durP1;ratioP1;P1;durP2;ratioP2;P2;SDS_P1;SDS_P2;PMS_P1;PMS_P2;Temp;Humidity;BMP_temperature;BMP_pressure;BME280_temperature;BME280_humidity;BME280_pressure;Samples;Min_cycle;Max_cycle;Signal;HPM_P1;HPM_P2
2021/01/01 00:01:03;;;;;;;30.48;17.60;;;5.80;86.90;;;;;;5031642;28;20087;-64
2021/01/01 00:03:29;;;;;;;41.75;23.38;;;5.80;87.50;;;;;;5024947;28;20033;-64
2021/01/01 00:05:54;;;;;;;34.85;18.83;;;5.80;88.30;;;;;;5028768;28;20030;-64
2021/01/01 00:08:20;;;;;;;28.55;17.30;;;5.90;88.70;;;;;;5030843;28;20126;-64
2021/01/01 00:10:46;;;;;;;28.52;17.63;;;6.00;88.90;;;;;;5016815;28;20354;-64
2021/01/01 00:13:11;;;;;;;31.83;18.02;;;6.00;88.40;;;;;;5019270;28;20056;-64
2021/01/01 00:15:37;;;;;;;27.77;17.85;;;6.00;88.00;;;;;;5036441;28;20438;-64
2021/01/01 00:18:03;;;;;;;32.05;20.15;;;5.90;87.80;;;;;;5022122;28;20080;-64
2021/01/01 00:20:29;;;;;;;29.38;18.05;;;5.90;87.80;;;;;;5029762;28;20034;-64
2021/01/01 00:22:54;;;;;;;30.55;16.77;;;5.90;87.80;;;;;;5029939;28;20025;-64
2021/01/01 00:25:20;;;;;;;30.75;17.77;;;5.80;88.10;;;;;;5030424;28;20075;-64
2021/01/01 00:27:46;;;;;;;35.75;19.42;;;5.90;88.40;;;;;;5016194;28;20386;-64
2021/01/01 00:30:12;;;;;;;36.78;20.73;;;5.90;88.60;;;;;;5020142;28;20034;-64
2021/01/01 00:32:42;;;;;;;28.67;16.83;;;5.90;88.50;;;;;;5034558;28;20370;-64
2021/01/01 00:35:09;;;;;;;25.45;15.43;;;6.00;88.40;;;;;;5035798;28;20051;-64
2021/01/01 00:37:36;;;;;;;26.10;16.00;;;6.00;89.00;;;;;;5031622;28;20052;-64
2021/01/01 00:40:05;;;;;;;27.85;17.73;;;6.10;88.20;;;;;;5031406;28;20033;-64
2021/01/01 00:42:35;;;;;;;26.42;16.02;;;6.00;87.50;;;;;;5016994;28;20021;-64
2021/01/01 00:45:00;;;;;;;24.88;15.45;;;6.00;87.10;;;;;;5016560;28;20544;-64
2021/01/01 00:47:26;;;;;;;32.17;18.55;;;5.90;86.60;;;;;;5024799;28;20025;-64
2021/01/01 00:49:52;;;;;;;27.08;15.65;;;5.90;86.30;;;;;;5034128;28;20032;-64
2021/01/01 00:52:17;;;;;;;25.05;15.32;;;5.80;86.10;;;;;;5034313;28;20354;-64
2021/01/01 00:54:43;;;;;;;26.83;15.73;;;5.60;86.10;;;;;;5033083;28;20108;-64
2021/01/01 00:57:08;;;;;;;27.35;16.55;;;5.60;87.00;;;;;;5024816;28;20029;-64
2021/01/01 00:59:34;;;;;;;28.17;15.75;;;5.60;87.20;;;;;;5035122;28;20045;-64
2021/01/01 01:02:00;;;;;;;30.00;15.60;;;5.60;87.30;;;;;;5032439;28;20371;-64
2021/01/01 01:04:25;;;;;;;31.63;18.02;;;5.60;87.40;;;;;;5029859;28;20021;-64
2021/01/01 01:06:51;;;;;;;30.10;17.33;;;5.60;87.40;;;;;;5034303;28;20049;-64
2021/01/01 01:09:17;;;;;;;25.77;17.27;;;5.60;87.70;;;;;;5025550;28;20053;-64
2021/01/01 01:11:43;;;;;;;26.42;16.98;;;5.60;87.60;;;;;;5028925;28;20030;-64
2021/01/01 01:14:08;;;;;;;30.77;16.63;;;5.60;87.80;;;;;;5028189;28;20026;-64
2021/01/01 01:16:34;;;;;;;28.75;16.88;;;5.60;87.90;;;;;;5026795;28;20026;-64
2021/01/01 01:19:00;;;;;;;31.70;17.25;;;5.60;88.10;;;;;;5020454;28;20029;-64
2021/01/01 01:21:27;;;;;;;28.92;17.40;;;5.60;87.90;;;;;;5034772;28;20029;-64
2021/01/01 01:23:54;;;;;;;34.58;19.42;;;5.60;87.70;;;;;;5034464;28;20047;-64
2021/01/01 01:26:20;;;;;;;30.40;18.63;;;5.60;87.70;;;;;;5025746;28;20033;-64
2021/01/01 01:28:46;;;;;;;32.50;19.05;;;5.50;87.70;;;;;;5029124;28;20049;-64
2021/01/01 01:31:12;;;;;;;31.48;18.85;;;5.50;87.80;;;;;;5034279;28;20014;-64
2021/01/01 01:33:38;;;;;;;29.92;17.42;;;5.40;88.00;;;;;;5025415;28;20461;-64
2021/01/01 01:36:04;;;;;;;30.25;16.77;;;5.40;88.50;;;;;;5026219;28;20508;-64
2021/01/01 01:38:30;;;;;;;29.90;17.23;;;5.50;88.70;;;;;;5032380;28;20022;-64
2021/01/01 01:40:56;;;;;;;30.60;16.63;;;5.50;89.10;;;;;;5034235;28;20037;-64
2021/01/01 01:43:23;;;;;;;28.00;17.50;;;5.60;89.40;;;;;;5032701;28;20032;-64
2021/01/01 01:45:49;;;;;;;30.52;18.77;;;5.70;89.40;;;;;;5025908;28;20029;-64
2021/01/01 01:48:43;;;;;;;32.33;19.85;;;5.70;89.20;;;;;;5020602;28;20486;-64
2021/01/01 01:51:10;;;;;;;27.55;17.95;;;5.70;88.70;;;;;;5015268;28;20481;-64
2021/01/01 01:53:43;;;;;;;30.38;17.98;;;5.70;88.50;;;;;;5014370;28;20018;-64
2021/01/01 01:56:10;;;;;;;33.03;17.65;;;5.70;88.50;;;;;;5032156;28;20020;-64
2021/01/01 01:58:37;;;;;;;27.60;16.60;;;5.70;88.60;;;;;;5024029;28;20029;-64
2021/01/01 02:01:03;;;;;;;28.67;17.02;;;5.60;88.60;;;;;;5030071;28;20531;-64
2021/01/01 02:03:31;;;;;;;34.03;19.60;;;5.60;88.60;;;;;;5015398;28;20026;-64
2021/01/01 02:05:57;;;;;;;29.42;17.30;;;5.60;88.30;;;;;;5014113;28;20489;-64
2021/01/01 02:08:24;;;;;;;26.00;15.50;;;5.60;88.20;;;;;;5033698;28;20021;-64
2021/01/01 02:10:58;;;;;;;29.60;16.35;;;5.60;87.90;;;;;;5033547;28;20022;-64
2021/01/01 02:13:24;;;;;;;29.58;17.80;;;5.60;88.10;;;;;;5033553;28;20017;-64
2021/01/01 02:15:50;;;;;;;29.58;17.63;;;5.50;88.00;;;;;;5033691;28;20033;-64
2021/01/01 02:18:36;;;;;;;27.40;16.42;;;5.50;87.80;;;;;;5032947;28;20097;-64
2021/01/01 02:21:02;;;;;;;25.45;16.40;;;5.50;87.90;;;;;;5033260;28;20026;-64
2021/01/01 02:23:28;;;;;;;29.30;17.05;;;5.50;88.00;;;;;;5032940;28;20021;-64
2021/01/01 02:25:55;;;;;;;27.02;17.17;;;5.40;87.80;;;;;;5033800;28;20033;-64
2021/01/01 02:28:21;;;;;;;26.42;16.98;;;5.40;87.80;;;;;;5031774;28;20038;-64
2021/01/01 02:30:46;;;;;;;31.40;17.80;;;5.40;88.00;;;;;;5033394;28;20050;-64
2021/01/01 02:33:12;;;;;;;33.30;18.27;;;5.40;87.70;;;;;;5031023;28;20076;-64
2021/01/01 02:35:38;;;;;;;30.92;17.45;;;5.40;87.50;;;;;;5033311;28;20022;-64
2021/01/01 02:38:03;;;;;;;31.33;18.83;;;5.30;87.30;;;;;;5033458;28;20032;-64
2021/01/01 02:40:29;;;;;;;31.58;18.38;;;5.20;87.50;;;;;;5031235;28;20083;-63
2021/01/01 02:42:55;;;;;;;32.47;18.92;;;5.10;87.60;;;;;;5033393;28;20091;-63
2021/01/01 02:45:20;;;;;;;31.60;18.52;;;5.20;88.00;;;;;;5018715;28;20029;-65
2021/01/01 02:47:46;;;;;;;35.70;19.13;;;5.10;88.10;;;;;;5032900;28;20029;-65
2021/01/01 02:50:12;;;;;;;29.27;16.83;;;5.20;88.30;;;;;;5031322;28;20481;-65
2021/01/01 02:52:39;;;;;;;30.30;16.88;;;5.20;88.50;;;;;;5027158;28;20109;-63
2021/01/01 02:55:05;;;;;;;26.08;16.35;;;5.20;88.70;;;;;;5030808;28;20036;-63
2021/01/01 02:57:31;;;;;;;31.38;18.45;;;5.20;88.90;;;;;;5020560;28;20446;-63
2021/01/01 02:59:57;;;;;;;26.45;16.55;;;5.30;89.20;;;;;;5031477;28;20025;-63
2021/01/01 03:02:23;;;;;;;30.55;18.05;;;5.40;89.00;;;;;;5032927;28;20030;-66
2021/01/01 03:04:48;;;;;;;28.52;16.90;;;5.40;88.80;;;;;;5032335;28;20100;-63
2021/01/01 03:07:14;;;;;;;28.67;17.30;;;5.40;88.50;;;;;;5032534;28;20533;-63
2021/01/01 03:09:39;;;;;;;29.17;17.10;;;5.40;88.40;;;;;;5031976;28;20385;-63
2021/01/01 03:12:05;;;;;;;31.48;17.67;;;5.40;88.50;;;;;;5032519;28;20148;-63
2021/01/01 03:14:31;;;;;;;29.38;17.77;;;5.40;88.30;;;;;;5032899;28;20033;-63
2021/01/01 03:16:57;;;;;;;30.55;17.45;;;5.40;88.30;;;;;;5032164;28;20461;-63
2021/01/01 03:19:22;;;;;;;33.05;19.05;;;5.40;88.20;;;;;;5032495;28;20044;-63
2021/01/01 03:21:48;;;;;;;27.08;17.27;;;5.40;88.40;;;;;;5029141;28;20797;-63
2021/01/01 03:24:14;;;;;;;29.63;18.52;;;5.40;88.80;;;;;;5021392;28;20090;-63
2021/01/01 03:26:39;;;;;;;30.45;17.80;;;5.40;89.20;;;;;;5031356;28;20021;-63
2021/01/01 03:29:05;;;;;;;30.08;17.42;;;5.40;89.40;;;;;;5028821;28;20471;-63
2021/01/01 03:31:31;;;;;;;31.25;18.48;;;5.50;89.50;;;;;;5025377;28;20025;-63
2021/01/01 03:33:57;;;;;;;29.42;18.10;;;5.60;89.60;;;;;;5032019;28;20024;-66
2021/01/01 03:36:22;;;;;;;31.58;18.70;;;5.70;89.00;;;;;;5021837;28;20024;-63
2021/01/01 03:38:48;;;;;;;34.28;19.38;;;5.70;88.80;;;;;;5028699;28;20057;-66
2021/01/01 03:41:14;;;;;;;34.53;19.25;;;5.70;88.50;;;;;;5023674;28;20029;-63
2021/01/01 03:43:40;;;;;;;35.03;20.55;;;5.70;88.40;;;;;;5027059;28;20021;-63
2021/01/01 03:46:06;;;;;;;35.05;19.98;;;5.60;88.40;;;;;;5029849;28;20079;-63
2021/01/01 03:48:31;;;;;;;38.28;21.60;;;5.60;88.60;;;;;;5021231;28;20037;-65
2021/01/01 03:50:57;;;;;;;36.30;21.17;;;5.70;88.40;;;;;;5017826;28;20569;-63
2021/01/01 03:53:23;;;;;;;40.75;23.42;;;5.70;88.30;;;;;;5020108;28;20469;-63
2021/01/01 03:55:49;;;;;;;36.10;21.20;;;5.60;88.20;;;;;;5032132;28;20064;-63
2021/01/01 03:58:14;;;;;;;36.63;21.65;;;5.60;88.10;;;;;;5031341;28;20022;-63
2021/01/01 04:00:40;;;;;;;37.40;22.77;;;5.60;88.30;;;;;;5030621;28;20112;-63
2021/01/01 04:03:06;;;;;;;39.03;22.65;;;5.50;88.30;;;;;;5028913;28;20033;-63
2021/01/01 04:05:31;;;;;;;39.97;21.33;;;5.50;88.50;;;;;;5020968;28;20025;-66
2021/01/01 04:07:57;;;;;;;45.50;24.83;;;5.50;88.60;;;;;;5031381;28;20057;-63
2021/01/01 04:10:23;;;;;;;38.65;23.10;;;5.50;88.50;;;;;;5031960;28;20100;-63
2021/01/01 04:12:48;;;;;;;38.88;23.52;;;5.50;88.50;;;;;;5031882;28;20018;-63
2021/01/01 04:15:14;;;;;;;40.53;23.33;;;5.50;88.40;;;;;;5031697;28;20040;-66
2021/01/01 04:17:40;;;;;;;38.65;22.90;;;5.40;88.40;;;;;;5021439;28;20045;-63
2021/01/01 04:20:06;;;;;;;37.42;21.08;;;5.40;88.40;;;;;;5014892;28;20033;-63
2021/01/01 04:22:32;;;;;;;38.63;24.75;;;5.40;88.30;;;;;;5031555;28;20053;-63
2021/01/01 04:24:59;;;;;;;38.67;24.88;;;5.40;88.20;;;;;;5017287;28;20149;-64
2021/01/01 04:27:24;;;;;;;38.67;24.60;;;5.30;88.00;;;;;;5030365;28;20061;-64
2021/01/01 04:29:50;;;;;;;46.95;26.52;;;5.30;88.20;;;;;;5019034;28;20034;-64
2021/01/01 04:32:16;;;;;;;42.10;23.23;;;5.20;88.10;;;;;;5029888;28;20466;-64
2021/01/01 04:34:41;;;;;;;34.67;20.92;;;5.30;88.30;;;;;;5031844;28;20033;-64
2021/01/01 04:37:07;;;;;;;36.42;21.63;;;5.20;88.50;;;;;;5031319;28;20051;-64
2021/01/01 04:39:33;;;;;;;40.45;23.67;;;5.30;88.50;;;;;;5023012;28;20037;-64
2021/01/01 04:42:01;;;;;;;36.80;24.08;;;5.20;88.00;;;;;;5025528;28;20033;-64
2021/01/01 04:44:27;;;;;;;35.72;23.15;;;5.20;87.90;;;;;;5012082;28;20542;-64
2021/01/01 04:46:52;;;;;;;34.67;21.42;;;5.20;87.80;;;;;;5026243;28;20556;-64
2021/01/01 04:49:19;;;;;;;34.08;21.48;;;5.10;87.70;;;;;;5029989;28;20104;-64
2021/01/01 04:51:45;;;;;;;31.33;21.05;;;5.10;87.70;;;;;;5019644;28;20037;-64
2021/01/01 04:54:11;;;;;;;38.60;22.15;;;5.00;87.70;;;;;;5031580;28;20373;-64
2021/01/01 04:56:47;;;;;;;38.92;22.35;;;5.10;88.00;;;;;;5029330;28;20163;-64
2021/01/01 04:59:17;;;;;;;32.50;21.15;;;5.00;88.00;;;;;;5028120;28;20535;-64
2021/01/01 05:01:46;;;;;;;32.60;20.17;;;5.00;88.10;;;;;;5029237;28;20041;-64
2021/01/01 05:04:15;;;;;;;36.30;21.02;;;5.00;88.30;;;;;;5027048;28;20025;-64
2021/01/01 05:06:42;;;;;;;31.48;20.65;;;5.00;88.40;;;;;;5020437;28;20107;-64
2021/01/01 05:09:08;;;;;;;35.03;21.30;;;5.10;88.50;;;;;;5024718;28;20385;-64
2021/01/01 05:11:34;;;;;;;31.95;19.23;;;5.10;88.30;;;;;;5030966;28;20048;-64
2021/01/01 05:14:01;;;;;;;28.90;18.58;;;5.10;88.30;;;;;;5034916;28;20025;-64
2021/01/01 05:16:27;;;;;;;34.75;22.20;;;5.20;88.10;;;;;;5034494;28;20043;-64
2021/01/01 05:18:54;;;;;;;30.25;20.17;;;5.20;87.60;;;;;;5034619;28;20029;-64
2021/01/01 05:21:27;;;;;;;28.77;20.15;;;5.10;87.20;;;;;;5034361;28;20113;-64
2021/01/01 05:23:56;;;;;;;28.08;18.83;;;5.10;87.30;;;;;;5034015;28;20061;-64
2021/01/01 05:26:27;;;;;;;34.45;18.75;;;5.00;87.50;;;;;;5034534;28;20033;-64
2021/01/01 05:28:56;;;;;;;32.37;19.30;;;5.00;87.80;;;;;;5029639;28;20508;-64
2021/01/01 05:31:26;;;;;;;30.10;19.17;;;5.00;88.30;;;;;;5026355;28;20257;-64
2021/01/01 05:34:18;;;;;;;31.27;20.20;;;5.10;88.40;;;;;;5034102;28;20381;-64
2021/01/01 05:36:45;;;;;;;;;;;5.20;88.50;;;;;;5021353;28;20290;-64
2021/01/01 05:39:13;;;;;;;31.50;17.50;;;5.10;88.30;;;;;;5013841;28;19906;-64
2021/01/01 05:41:41;;;;;;;25.67;15.93;;;5.20;88.90;;;;;;5026476;28;20037;-64
2021/01/01 05:44:10;;;;;;;27.65;16.55;;;5.30;89.10;;;;;;5015537;28;20110;-64
2021/01/01 05:46:52;;;;;;;23.90;16.42;;;5.40;88.80;;;;;;5026870;28;20064;-64
2021/01/01 05:49:18;;;;;;;;;;;5.50;88.60;;;;;;5025460;28;20071;-64
2021/01/01 05:51:44;;;;;;;21.48;14.60;;;5.50;88.10;;;;;;5033773;28;19989;-64
2021/01/01 05:54:11;;;;;;;22.80;15.02;;;5.60;88.10;;;;;;5025055;28;20104;-64
2021/01/01 05:56:40;;;;;;;29.15;17.77;;;5.60;87.80;;;;;;5020309;28;20458;-64
2021/01/01 05:59:13;;;;;;;26.25;16.63;;;5.60;87.50;;;;;;5034158;28;20551;-64
2021/01/01 06:01:42;;;;;;;23.55;15.77;;;5.60;87.30;;;;;;5028549;28;20037;-64
2021/01/01 06:04:09;;;;;;;24.08;16.05;;;5.60;87.20;;;;;;5033766;28;20025;-64
2021/01/01 06:06:36;;;;;;;24.58;15.80;;;5.50;87.00;;;;;;5021555;28;20583;-64
2021/01/01 06:09:06;;;;;;;25.05;15.25;;;5.50;87.10;;;;;;5027267;28;20120;-64
2021/01/01 06:11:36;;;;;;;25.63;14.82;;;5.50;87.50;;;;;;5024534;28;20029;-64
2021/01/01 06:14:05;;;;;;;24.87;14.93;;;5.50;87.60;;;;;;5034271;28;20485;-64
2021/01/01 06:16:42;;;;;;;22.08;15.02;;;5.60;87.60;;;;;;5028394;28;20751;-64
2021/01/01 06:19:12;;;;;;;23.92;15.88;;;5.60;87.40;;;;;;5033668;28;20045;-64
2021/01/01 06:21:44;;;;;;;23.60;16.15;;;5.60;87.50;;;;;;5023570;28;20116;-64
2021/01/01 06:24:18;;;;;;;24.50;15.85;;;5.70;87.60;;;;;;5020429;28;20073;-64
2021/01/01 06:26:44;;;;;;;21.67;15.13;;;5.70;87.50;;;;;;5027285;28;20385;-64
2021/01/01 06:29:15;;;;;;;22.83;14.52;;;5.70;87.90;;;;;;5025967;28;20033;-64
2021/01/01 06:31:44;;;;;;;25.52;15.77;;;5.90;88.70;;;;;;5028069;28;20359;-64
2021/01/01 06:34:42;;;;;;;25.17;15.80;;;6.10;89.00;;;;;;5033261;28;20072;-64
2021/01/01 06:37:28;;;;;;;21.92;14.73;;;6.20;88.40;;;;;;5041413;28;20026;-65
2021/01/01 06:39:54;;;;;;;21.65;15.13;;;6.30;88.30;;;;;;5033073;28;20061;-65
2021/01/01 06:42:48;;;;;;;24.38;14.68;;;6.50;88.10;;;;;;5033092;28;20433;-65
2021/01/01 06:45:35;;;;;;;20.05;13.57;;;6.60;87.60;;;;;;5032907;28;20496;-65
2021/01/01 06:48:24;;;;;;;20.17;13.90;;;6.60;87.00;;;;;;5033017;28;20025;-65
2021/01/01 06:50:52;;;;;;;21.35;12.82;;;6.70;87.10;;;;;;5024134;28;20045;-65
2021/01/01 06:53:25;;;;;;;21.02;13.88;;;6.80;86.90;;;;;;5031135;28;20379;-65
2021/01/01 06:55:51;;;;;;;21.17;14.73;;;6.80;86.60;;;;;;5027343;28;20075;-65
2021/01/01 06:58:26;;;;;;;19.98;13.32;;;6.80;86.40;;;;;;5032084;28;20025;-65
2021/01/01 07:00:53;;;;;;;20.38;13.60;;;6.80;86.20;;;;;;5020609;28;20036;-65
2021/01/01 07:03:30;;;;;;;21.65;14.50;;;6.90;86.20;;;;;;5026606;28;20060;-65
2021/01/01 07:06:16;;;;;;;18.63;12.45;;;6.90;86.30;;;;;;5024502;28;20022;-65
2021/01/01 07:08:42;;;;;;;19.27;12.70;;;6.90;86.70;;;;;;5019827;28;20500;-65
2021/01/01 07:11:08;;;;;;;18.42;12.05;;;7.00;87.40;;;;;;5032819;28;20021;-65
2021/01/01 07:13:47;;;;;;;21.15;12.63;;;7.10;87.80;;;;;;5018404;28;20526;-65
2021/01/01 07:16:14;;;;;;;19.17;12.63;;;7.30;88.10;;;;;;5032219;28;20049;-65
2021/01/01 07:18:40;;;;;;;20.90;12.10;;;7.50;88.10;;;;;;5027344;28;20105;-65
2021/01/01 07:21:07;;;;;;;16.55;11.55;;;7.60;88.00;;;;;;5023195;28;20026;-65
2021/01/01 07:23:33;;;;;;;16.15;11.60;;;7.80;88.20;;;;;;5031537;28;20477;-65
2021/01/01 07:26:00;;;;;;;16.80;10.38;;;7.90;87.90;;;;;;5032582;28;20057;-65
2021/01/01 07:28:27;;;;;;;19.25;11.90;;;8.10;87.70;;;;;;5031593;28;20041;-65
2021/01/01 07:30:54;;;;;;;18.60;11.85;;;8.10;87.30;;;;;;5031575;28;20477;-65
2021/01/01 07:33:30;;;;;;;22.02;12.77;;;8.20;86.90;;;;;;5032105;28;20033;-65
2021/01/01 07:35:58;;;;;;;23.10;14.40;;;8.30;86.70;;;;;;5020749;28;20056;-65
2021/01/01 07:38:29;;;;;;;16.58;11.45;;;8.30;86.60;;;;;;5032068;28;20029;-64
2021/01/01 07:40:55;;;;;;;17.08;12.05;;;8.40;86.70;;;;;;5021351;28;20412;-65
2021/01/01 07:43:21;;;;;;;15.93;11.35;;;8.40;86.70;;;;;;5032388;28;20405;-64
2021/01/01 07:45:48;;;;;;;19.42;12.18;;;8.40;86.50;;;;;;5032017;28;20022;-65
2021/01/01 07:48:14;;;;;;;17.80;11.52;;;8.50;86.30;;;;;;5032337;28;20061;-65
2021/01/01 07:50:40;;;;;;;20.05;11.57;;;8.50;86.50;;;;;;5020095;28;20116;-65
2021/01/01 07:53:10;;;;;;;19.45;12.82;;;8.50;86.50;;;;;;5017707;28;20022;-65
2021/01/01 07:55:37;;;;;;;19.92;13.30;;;8.60;86.40;;;;;;5015208;28;20053;-65
2021/01/01 07:58:07;;;;;;;19.42;12.68;;;8.60;86.30;;;;;;5028724;28;20029;-65
2021/01/01 08:00:34;;;;;;;20.63;12.68;;;8.70;86.40;;;;;;5026034;28;20470;-64
2021/01/01 08:03:01;;;;;;;20.80;12.98;;;8.70;86.30;;;;;;5022772;28;20583;-64
2021/01/01 08:05:27;;;;;;;20.35;12.85;;;8.70;86.30;;;;;;5032149;28;20092;-65
2021/01/01 08:07:54;;;;;;;22.10;13.05;;;8.70;86.20;;;;;;5031821;28;20104;-65
2021/01/01 08:10:33;;;;;;;18.88;12.88;;;8.80;86.40;;;;;;5032212;28;20100;-65
2021/01/01 08:12:58;;;;;;;19.73;12.95;;;8.80;86.40;;;;;;5022582;28;20022;-65
2021/01/01 08:15:29;;;;;;;22.88;13.55;;;8.80;86.50;;;;;;5022923;28;20025;-64
2021/01/01 08:17:55;;;;;;;22.75;13.05;;;8.90;86.60;;;;;;5023614;28;20385;-65
2021/01/01 08:20:21;;;;;;;24.30;13.35;;;8.90;86.80;;;;;;5027185;28;20036;-65
2021/01/01 08:22:48;;;;;;;16.73;11.80;;;9.00;86.90;;;;;;5031634;28;20029;-65
2021/01/01 08:25:16;;;;;;;19.52;12.13;;;9.00;86.60;;;;;;5028201;28;20094;-65
2021/01/01 08:27:43;;;;;;;20.13;12.02;;;9.10;86.60;;;;;;5033970;28;20080;-65
2021/01/01 08:30:10;;;;;;;18.85;12.38;;;9.10;86.60;;;;;;5033539;28;20038;-65
2021/01/01 08:32:37;;;;;;;20.20;12.00;;;9.10;86.60;;;;;;5035465;28;20014;-65
2021/01/01 08:35:03;;;;;;;18.40;12.15;;;9.20;86.40;;;;;;5035550;28;20029;-65
2021/01/01 08:37:29;;;;;;;17.00;11.05;;;9.20;86.40;;;;;;5033449;28;20045;-65
2021/01/01 08:40:04;;;;;;;16.75;11.48;;;9.30;86.50;;;;;;5035535;28;20516;-65
2021/01/01 08:42:34;;;;;;;19.38;12.75;;;9.30;86.50;;;;;;5029872;28;20470;-65
2021/01/01 08:45:08;;;;;;;21.30;12.90;;;9.40;86.40;;;;;;5025611;28;20087;-65
2021/01/01 08:47:43;;;;;;;20.27;12.80;;;9.40;86.40;;;;;;5034335;28;20076;-65
2021/01/01 08:50:23;;;;;;;21.48;13.70;;;9.50;86.60;;;;;;5019030;28;20414;-65
2021/01/01 08:52:58;;;;;;;21.33;12.27;;;9.50;86.60;;;;;;5030930;28;20024;-65
2021/01/01 08:55:24;;;;;;;20.63;12.18;;;9.60;86.20;;;;;;5035337;28;20025;-65
2021/01/01 08:57:50;;;;;;;16.33;11.82;;;9.60;86.00;;;;;;5019812;28;20030;-65
2021/01/01 09:00:17;;;;;;;17.13;11.77;;;9.60;85.60;;;;;;5022474;28;20388;-63
2021/01/01 09:02:45;;;;;;;19.05;12.10;;;9.60;85.40;;;;;;5035107;28;20075;-65
2021/01/01 09:05:12;;;;;;;19.83;12.63;;;9.60;85.40;;;;;;5034063;28;20042;-63
2021/01/01 09:07:38;;;;;;;16.88;11.07;;;9.60;85.60;;;;;;5035522;28;20056;-63
2021/01/01 09:10:24;;;;;;;20.80;12.25;;;9.60;85.90;;;;;;5034780;28;20484;-63
2021/01/01 09:12:49;;;;;;;18.80;11.95;;;9.70;85.50;;;;;;5035059;28;20025;-64
2021/01/01 09:15:27;;;;;;;20.17;12.30;;;9.70;85.70;;;;;;5020745;28;20091;-64
2021/01/01 09:18:06;;;;;;;18.80;12.75;;;9.80;86.00;;;;;;5035180;28;20033;-64
2021/01/01 09:20:32;;;;;;;21.77;12.77;;;9.80;86.00;;;;;;5029098;28;20057;-64
2021/01/01 09:23:01;;;;;;;18.92;11.70;;;9.90;85.90;;;;;;5027418;28;20017;-64
2021/01/01 09:25:27;;;;;;;18.60;12.52;;;9.90;86.00;;;;;;5023930;28;20543;-65
2021/01/01 09:27:54;;;;;;;20.48;13.13;;;10.00;85.70;;;;;;5034336;28;20064;-65
2021/01/01 09:30:22;;;;;;;22.70;12.40;;;10.00;85.40;;;;;;5032766;28;20017;-65
2021/01/01 09:32:50;;;;;;;25.13;14.07;;;10.00;85.30;;;;;;5034813;28;20030;-63
2021/01/01 09:35:17;;;;;;;20.25;12.73;;;10.10;85.10;;;;;;5033581;28;20026;-65
2021/01/01 09:37:48;;;;;;;25.13;13.90;;;10.10;85.30;;;;;;5034039;28;20481;-65
2021/01/01 09:40:15;;;;;;;22.20;14.57;;;10.10;85.30;;;;;;5033969;28;20040;-65
2021/01/01 09:42:41;;;;;;;22.33;13.95;;;10.10;85.30;;;;;;5027795;28;20382;-65
2021/01/01 09:45:07;;;;;;;22.20;14.20;;;10.20;85.50;;;;;;5026783;28;20022;-65
2021/01/01 09:47:33;;;;;;;23.50;14.07;;;10.20;85.60;;;;;;5033303;28;20411;-65
2021/01/01 09:49:58;;;;;;;24.48;14.88;;;10.30;85.60;;;;;;5016034;28;20036;-65
2021/01/01 09:52:24;;;;;;;30.70;16.05;;;10.40;85.60;;;;;;5016151;28;20021;-65
2021/01/01 09:54:50;;;;;;;28.17;16.10;;;10.40;85.30;;;;;;5032795;28;20079;-64
2021/01/01 09:57:15;;;;;;;25.52;16.67;;;10.50;85.30;;;;;;5034091;28;20501;-64
2021/01/01 09:59:41;;;;;;;30.02;17.15;;;10.50;85.10;;;;;;5031804;28;20444;-64
2021/01/01 10:02:07;;;;;;;26.60;17.00;;;10.60;85.20;;;;;;5034241;28;20022;-64
2021/01/01 10:04:32;;;;;;;29.88;15.63;;;10.60;85.30;;;;;;5031384;28;20456;-65
2021/01/01 10:06:58;;;;;;;29.58;16.35;;;10.70;85.00;;;;;;5031020;28;20028;-64
2021/01/01 10:09:24;;;;;;;31.30;16.98;;;10.70;84.80;;;;;;5033866;28;20025;-64
2021/01/01 10:11:50;;;;;;;30.38;19.60;;;10.80;84.60;;;;;;5031847;28;20044;-64
2021/01/01 10:14:16;;;;;;;30.25;18.65;;;10.80;84.60;;;;;;5032018;28;20021;-64
2021/01/01 10:16:42;;;;;;;26.20;17.27;;;10.90;84.50;;;;;;5031554;28;20025;-64
2021/01/01 10:19:08;;;;;;;29.42;17.38;;;10.90;84.20;;;;;;5031887;28;20025;-64
2021/01/01 10:21:33;;;;;;;27.33;17.38;;;10.90;84.10;;;;;;5030838;28;20036;-64
2021/01/01 10:23:59;;;;;;;30.25;16.92;;;10.90;84.30;;;;;;5030800;28;20037;-64
2021/01/01 10:26:25;;;;;;;22.10;15.30;;;11.00;84.20;;;;;;5033593;28;20167;-64
2021/01/01 10:28:50;;;;;;;25.02;16.42;;;11.00;84.20;;;;;;5031205;28;20524;-64
2021/01/01 10:31:23;;;;;;;37.10;19.30;;;11.00;84.10;;;;;;5032808;28;20029;-64
2021/01/01 10:33:49;;;;;;;42.78;22.27;;;11.10;83.70;;;;;;5032654;28;20029;-64
2021/01/01 10:36:15;;;;;;;46.88;24.42;;;11.10;83.50;;;;;;5032006;28;20028;-64
2021/01/01 10:38:41;;;;;;;43.55;23.98;;;11.10;83.20;;;;;;5020764;28;20040;-65
2021/01/01 10:41:10;;;;;;;42.72;24.45;;;11.10;83.30;;;;;;5021278;28;20017;-65
2021/01/01 10:43:36;;;;;;;48.95;25.45;;;11.20;83.40;;;;;;5031372;28;20022;-65
2021/01/01 10:46:02;;;;;;;52.90;27.17;;;11.20;83.50;;;;;;5033275;28;20032;-65
2021/01/01 10:48:27;;;;;;;46.30;24.05;;;11.20;83.40;;;;;;5025049;28;20037;-65
2021/01/01 10:50:53;;;;;;;46.60;25.02;;;11.20;83.20;;;;;;5012230;28;20042;-64
2021/01/01 10:53:19;;;;;;;41.78;21.67;;;11.20;83.10;;;;;;5031251;28;20029;-64
2021/01/01 10:55:45;;;;;;;45.85;23.25;;;11.30;82.70;;;;;;5033449;28;20427;-64
2021/01/01 10:58:11;;;;;;;49.50;23.00;;;11.30;82.60;;;;;;5032436;28;20026;-64
2021/01/01 11:00:36;;;;;;;45.03;22.10;;;11.30;82.60;;;;;;5032835;28;20163;-64
2021/01/01 11:03:02;;;;;;;40.78;21.42;;;11.30;82.50;;;;;;5032087;28;20427;-64
2021/01/01 11:05:28;;;;;;;37.17;18.65;;;11.30;82.30;;;;;;5032675;28;20017;-64
2021/01/01 11:07:54;;;;;;;44.67;22.60;;;11.30;82.20;;;;;;5030568;28;20029;-64
2021/01/01 11:10:19;;;;;;;40.80;21.80;;;11.30;82.20;;;;;;5026730;28;20496;-64
2021/01/01 11:12:46;;;;;;;37.47;24.52;;;11.30;82.20;;;;;;5025121;28;20029;-64
2021/01/01 12:27:01;;;;;;;18.02;12.18;;;9.60;78.50;;;;;;5035905;28;20123;-64
2021/01/01 12:29:28;;;;;;;20.00;12.90;;;9.30;78.00;;;;;;5028290;28;20026;-64
2021/01/01 12:31:56;;;;;;;21.58;13.38;;;8.90;77.80;;;;;;5022865;28;20048;-64
2021/01/01 12:34:22;;;;;;;19.48;13.55;;;8.50;78.30;;;;;;5022674;28;20018;-64
2021/01/01 12:36:48;;;;;;;21.27;14.38;;;8.30;79.60;;;;;;5035423;28;20092;-63
2021/01/01 12:39:14;;;;;;;22.30;14.57;;;8.10;80.50;;;;;;5033706;28;20104;-64
2021/01/01 12:41:39;;;;;;;18.92;13.02;;;7.90;81.10;;;;;;5022374;28;20133;-64
2021/01/01 12:44:05;;;;;;;20.63;14.00;;;7.80;81.70;;;;;;5031644;28;20028;-64
2021/01/01 12:46:31;;;;;;;26.20;15.88;;;7.70;81.90;;;;;;5035734;28;20020;-64
2021/01/01 12:48:57;;;;;;;23.85;14.70;;;7.70;82.10;;;;;;5033970;28;20029;-64
2021/01/01 12:51:23;;;;;;;24.70;14.23;;;7.60;82.40;;;;;;5034851;28;20079;-64
2021/01/01 12:53:49;;;;;;;23.13;13.43;;;7.50;82.40;;;;;;5029826;28;20104;-64
2021/01/01 12:56:14;;;;;;;24.33;14.93;;;7.50;82.30;;;;;;5034777;28;20018;-64
2021/01/01 12:58:40;;;;;;;21.00;14.18;;;7.40;82.60;;;;;;5034034;28;20163;-64
2021/01/01 13:01:06;;;;;;;25.60;16.17;;;7.40;83.00;;;;;;5034645;28;20044;-64
2021/01/01 13:03:32;;;;;;;23.90;15.57;;;7.30;83.10;;;;;;5035106;28;20025;-64
2021/01/01 13:05:59;;;;;;;26.58;15.55;;;7.30;83.00;;;;;;5035226;28;20025;-64
2021/01/01 13:08:25;;;;;;;29.17;17.38;;;7.20;83.30;;;;;;5030175;28;20033;-63
2021/01/01 13:10:50;;;;;;;27.73;16.30;;;7.20;83.40;;;;;;5025597;28;20021;-64
2021/01/01 13:13:16;;;;;;;27.38;16.30;;;7.20;83.90;;;;;;5031419;28;20025;-64
2021/01/01 13:15:42;;;;;;;26.13;15.27;;;7.20;84.20;;;;;;5023658;28;20560;-64
2021/01/01 13:18:09;;;;;;;26.83;14.98;;;7.20;84.20;;;;;;5034184;28;20551;-64
2021/01/01 13:20:35;;;;;;;29.90;17.02;;;7.20;84.20;;;;;;5018972;28;20030;-64
2021/01/01 13:23:01;;;;;;;24.83;14.77;;;7.20;84.10;;;;;;5032464;28;20047;-64
2021/01/01 13:25:26;;;;;;;26.60;15.93;;;7.20;84.40;;;;;;5034135;28;20488;-64
2021/01/01 13:27:53;;;;;;;31.80;16.95;;;7.20;84.40;;;;;;5034621;28;20049;-64
2021/01/01 13:30:19;;;;;;;30.40;15.98;;;7.20;84.60;;;;;;5034367;28;20042;-64
2021/01/01 13:32:45;;;;;;;27.15;15.82;;;7.20;84.30;;;;;;5034728;28;20034;-63
2021/01/01 13:35:13;;;;;;;28.10;15.75;;;7.20;84.00;;;;;;5033344;28;20022;-64
2021/01/01 13:37:38;;;;;;;26.52;16.52;;;7.10;83.90;;;;;;5014875;28;20026;-64
2021/01/01 13:40:05;;;;;;;22.45;14.20;;;7.00;83.70;;;;;;5014724;28;20029;-64
2021/01/01 13:42:31;;;;;;;23.45;15.15;;;7.00;83.90;;;;;;5033008;28;20017;-64
2021/01/01 13:44:58;;;;;;;21.98;14.00;;;7.00;84.10;;;;;;5023558;28;20573;-64
2021/01/01 13:47:24;;;;;;;23.90;15.05;;;6.90;84.00;;;;;;5019814;28;20040;-64
2021/01/01 13:49:50;;;;;;;23.13;14.35;;;6.90;83.60;;;;;;5023265;28;20052;-64